Eastern Galaxy — DUCH — position and weather

sailwx.info

Track history (hours):
 
Tides and Currents Weather Stations Pressure Air Temp Water Temp Dewpoint Dewpoint Depression Visibility Wind Speed Wind Dir Waves Ship Positions

Eastern Galaxy

Last reported at 2015-Jul-03 00:33 UTC. Time now 2015-Jul-04 11:46 UTC.
Position N 34°56' E 139°26'.

Length 100 m; draft 5.9 m.

Type: Cargo ship. MMSI: 548829000.

Date/timePositionNaut miles runAvg speedWind from/ knotsBaromVisibWave heightAir tempDewpointWater temp
2015-Jul-03 00:33N 34°56' E 139°26'1010.2
2015-Jul-02 23:33N 35°02' E 139°36'1010.4
2015-Jul-02 22:33N 35°09' E 139°45'1111.2
2015-Jul-02 21:34N 35°20' E 139°42'7 7.2
2015-Jul-02 20:33N 35°27' E 139°41'0 0.0
2015-Jul-02 19:33N 35°27' E 139°41'0 0.0
2015-Jul-02 18:33N 35°27' E 139°41'0 0.0
2015-Jul-02 17:33N 35°27' E 139°41'0 0.0
2015-Jul-02 16:33N 35°27' E 139°41'0 0.0
2015-Jul-02 15:33N 35°27' E 139°41'0 0.0
2015-Jul-02 14:33N 35°27' E 139°41'0 0.0
2015-Jul-02 13:33N 35°27' E 139°41'0 0.0
2015-Jul-02 12:33N 35°27' E 139°41'0 0.0
2015-Jul-02 11:33N 35°27' E 139°41'0 0.0
2015-Jul-02 10:33N 35°27' E 139°41'0 0.0
2015-Jul-02 09:33N 35°27' E 139°41'0 0.0
2015-Jul-02 08:33N 35°27' E 139°41'0 0.0
2015-Jul-02 07:33N 35°27' E 139°41'0 0.0
2015-Jul-02 06:33N 35°27' E 139°41'0 0.0
2015-Jul-02 05:33N 35°27' E 139°41'0 0.0
2015-Jul-02 04:33N 35°27' E 139°41'0 0.0
2015-Jul-02 03:33N 35°27' E 139°41'0 0.0
2015-Jul-02 02:33N 35°27' E 139°41'0 0.0
2015-Jul-02 01:30N 35°27' E 139°41'0 0.0
2015-Jul-02 00:30N 35°27' E 139°41'0 0.0
2015-Jul-01 23:27N 35°27' E 139°41'0 0.0
2015-Jul-01 22:30N 35°27' E 139°41'0 0.0
2015-Jul-01 21:33N 35°27' E 139°41'0 0.0
2015-Jul-01 20:30N 35°27' E 139°41'0 0.0
2015-Jul-01 19:33N 35°27' E 139°41'0 0.0
2015-Jul-01 18:33N 35°27' E 139°41'0 0.0
2015-Jul-01 17:30N 35°27' E 139°41'0 0.0
2015-Jul-01 16:30N 35°27' E 139°41'0 0.0
2015-Jul-01 15:33N 35°27' E 139°41'0 0.0
2015-Jul-01 14:30N 35°27' E 139°41'0 0.0
2015-Jul-01 13:30N 35°27' E 139°41'0 0.0
2015-Jul-01 12:33N 35°27' E 139°41'0 0.0
2015-Jul-01 11:27N 35°27' E 139°41'0 0.0
2015-Jul-01 10:33N 35°27' E 139°41'0 0.0
2015-Jul-01 09:33N 35°27' E 139°41'0 0.0
2015-Jul-01 08:33N 35°27' E 139°41'0 0.0
2015-Jul-01 07:33N 35°27' E 139°41'0 0.0
2015-Jul-01 06:33N 35°27' E 139°41'0 0.0
2015-Jul-01 05:33N 35°27' E 139°41'0 0.0
2015-Jul-01 04:33N 35°27' E 139°41'0 0.0
2015-Jul-01 03:24N 35°27' E 139°41'0 0.0
2015-Jul-01 02:30N 35°27' E 139°41'0 0.0
2015-Jul-01 01:33N 35°27' E 139°41'0 0.0
2015-Jul-01 00:33N 35°27' E 139°41'0 0.0
2015-Jun-30 23:31N 35°27' E 139°41'0 0.0
2015-Jun-30 22:31N 35°27' E 139°41'0 0.1
2015-Jun-30 21:34N 35°27' E 139°41'2 1.6
2015-Jun-30 20:33N 35°26' E 139°42'0 0.0
2015-Jun-30 19:33N 35°26' E 139°42'0 0.1
2015-Jun-30 18:33N 35°26' E 139°42'0 0.0
2015-Jun-30 17:33N 35°26' E 139°42'0 0.1
2015-Jun-30 16:33N 35°26' E 139°42'0 0.0
2015-Jun-30 15:33N 35°26' E 139°42'0 0.1
2015-Jun-30 14:33N 35°26' E 139°42'7 7.0
2015-Jun-30 13:33N 35°19' E 139°44'1211.9
2015-Jun-30 12:33N 35°07' E 139°46'1211.9
2015-Jun-30 11:33N 34°59' E 139°35'24110.5
2015-Jun-29 12:29N 33°49' E 134°56'1112.0
2015-Jun-29 11:33N 34°00' E 134°57'1111.5
2015-Jun-29 10:33N 34°11' E 134°58'1010.3
2015-Jun-29 09:33N 34°22' E 135°00'1111.1
2015-Jun-29 08:33N 34°30' E 135°09'1211.6
2015-Jun-29 07:33N 34°39' E 135°18'3 3.1
2015-Jun-29 06:32N 34°42' E 135°17'0 0.0
2015-Jun-29 05:26N 34°42' E 135°17'0 0.0
2015-Jun-29 04:32N 34°42' E 135°17'0 0.0
2015-Jun-29 03:32N 34°42' E 135°17'0 0.0
2015-Jun-29 02:26N 34°42' E 135°17'0 0.0
2015-Jun-29 01:26N 34°42' E 135°17'0 0.0
2015-Jun-29 00:32N 34°42' E 135°17'0 0.0
2015-Jun-28 23:32N 34°42' E 135°17'0 0.1
2015-Jun-28 22:33N 34°41' E 135°17'3 2.5
2015-Jun-28 21:22N 34°39' E 135°18'0 0.1
2015-Jun-28 20:28N 34°39' E 135°18'0 0.0
2015-Jun-28 19:28N 34°39' E 135°18'0 0.0
2015-Jun-28 18:28N 34°39' E 135°18'0 0.0
2015-Jun-28 17:28N 34°39' E 135°18'0 0.0
2015-Jun-28 16:28N 34°39' E 135°18'0 0.0
2015-Jun-28 15:28N 34°39' E 135°18'0 0.0
2015-Jun-28 14:28N 34°39' E 135°18'0 0.0
2015-Jun-28 13:28N 34°39' E 135°18'0 0.0
2015-Jun-28 12:28N 34°39' E 135°18'1 1.1
2015-Jun-28 11:34N 34°38' E 135°18'8 7.9
2015-Jun-28 10:34N 34°31' E 135°13'1212.2
2015-Jun-28 09:33N 34°21' E 135°03'1212.3
2015-Jun-28 08:34N 34°10' E 134°59'1312.5
2015-Jun-28 07:29N 33°56' E 134°59'  
Track history (hours):
 
Tides and Currents Weather Stations Pressure Air Temp Water Temp Dewpoint Dewpoint Depression Visibility Wind Speed Wind Dir Waves Ship Positions

Eastern Galaxy

Last reported at 2015-Jul-03 00:33 UTC. Time now 2015-Jul-04 11:46 UTC.
Position N 34°56' E 139°26'.

Length 100 m; draft 5.9 m.

Type: Cargo ship. MMSI: 548829000.

Date/timePositionNaut miles runAvg speedWind from/ knotsBaromVisibWave heightAir tempDewpointWater temp
2015-Jul-03 00:33N 34°56' E 139°26'1010.2
2015-Jul-02 23:33N 35°02' E 139°36'1010.4
2015-Jul-02 22:33N 35°09' E 139°45'1111.2
2015-Jul-02 21:34N 35°20' E 139°42'7 7.2
2015-Jul-02 20:33N 35°27' E 139°41'0 0.0
2015-Jul-02 19:33N 35°27' E 139°41'0 0.0
2015-Jul-02 18:33N 35°27' E 139°41'0 0.0
2015-Jul-02 17:33N 35°27' E 139°41'0 0.0
2015-Jul-02 16:33N 35°27' E 139°41'0 0.0
2015-Jul-02 15:33N 35°27' E 139°41'0 0.0
2015-Jul-02 14:33N 35°27' E 139°41'0 0.0
2015-Jul-02 13:33N 35°27' E 139°41'0 0.0
2015-Jul-02 12:33N 35°27' E 139°41'0 0.0
2015-Jul-02 11:33N 35°27' E 139°41'0 0.0
2015-Jul-02 10:33N 35°27' E 139°41'0 0.0
2015-Jul-02 09:33N 35°27' E 139°41'0 0.0
2015-Jul-02 08:33N 35°27' E 139°41'0 0.0
2015-Jul-02 07:33N 35°27' E 139°41'0 0.0
2015-Jul-02 06:33N 35°27' E 139°41'0 0.0
2015-Jul-02 05:33N 35°27' E 139°41'0 0.0
2015-Jul-02 04:33N 35°27' E 139°41'0 0.0
2015-Jul-02 03:33N 35°27' E 139°41'0 0.0
2015-Jul-02 02:33N 35°27' E 139°41'0 0.0
2015-Jul-02 01:30N 35°27' E 139°41'0 0.0
2015-Jul-02 00:30N 35°27' E 139°41'0 0.0
2015-Jul-01 23:27N 35°27' E 139°41'0 0.0
2015-Jul-01 22:30N 35°27' E 139°41'0 0.0
2015-Jul-01 21:33N 35°27' E 139°41'0 0.0
2015-Jul-01 20:30N 35°27' E 139°41'0 0.0
2015-Jul-01 19:33N 35°27' E 139°41'0 0.0
2015-Jul-01 18:33N 35°27' E 139°41'0 0.0
2015-Jul-01 17:30N 35°27' E 139°41'0 0.0
2015-Jul-01 16:30N 35°27' E 139°41'0 0.0
2015-Jul-01 15:33N 35°27' E 139°41'0 0.0
2015-Jul-01 14:30N 35°27' E 139°41'0 0.0
2015-Jul-01 13:30N 35°27' E 139°41'0 0.0
2015-Jul-01 12:33N 35°27' E 139°41'0 0.0
2015-Jul-01 11:27N 35°27' E 139°41'0 0.0
2015-Jul-01 10:33N 35°27' E 139°41'0 0.0
2015-Jul-01 09:33N 35°27' E 139°41'0 0.0
2015-Jul-01 08:33N 35°27' E 139°41'0 0.0
2015-Jul-01 07:33N 35°27' E 139°41'0 0.0
2015-Jul-01 06:33N 35°27' E 139°41'0 0.0
2015-Jul-01 05:33N 35°27' E 139°41'0 0.0
2015-Jul-01 04:33N 35°27' E 139°41'0 0.0
2015-Jul-01 03:24N 35°27' E 139°41'0 0.0
2015-Jul-01 02:30N 35°27' E 139°41'0 0.0
2015-Jul-01 01:33N 35°27' E 139°41'0 0.0
2015-Jul-01 00:33N 35°27' E 139°41'0 0.0
2015-Jun-30 23:31N 35°27' E 139°41'0 0.0
2015-Jun-30 22:31N 35°27' E 139°41'0 0.1
2015-Jun-30 21:34N 35°27' E 139°41'2 1.6
2015-Jun-30 20:33N 35°26' E 139°42'0 0.0
2015-Jun-30 19:33N 35°26' E 139°42'0 0.1
2015-Jun-30 18:33N 35°26' E 139°42'0 0.0
2015-Jun-30 17:33N 35°26' E 139°42'0 0.1
2015-Jun-30 16:33N 35°26' E 139°42'0 0.0
2015-Jun-30 15:33N 35°26' E 139°42'0 0.1
2015-Jun-30 14:33N 35°26' E 139°42'7 7.0
2015-Jun-30 13:33N 35°19' E 139°44'1211.9
2015-Jun-30 12:33N 35°07' E 139°46'1211.9
2015-Jun-30 11:33N 34°59' E 139°35'24110.5
2015-Jun-29 12:29N 33°49' E 134°56'1112.0
2015-Jun-29 11:33N 34°00' E 134°57'1111.5
2015-Jun-29 10:33N 34°11' E 134°58'1010.3
2015-Jun-29 09:33N 34°22' E 135°00'1111.1
2015-Jun-29 08:33N 34°30' E 135°09'1211.6
2015-Jun-29 07:33N 34°39' E 135°18'3 3.1
2015-Jun-29 06:32N 34°42' E 135°17'0 0.0
2015-Jun-29 05:26N 34°42' E 135°17'0 0.0
2015-Jun-29 04:32N 34°42' E 135°17'0 0.0
2015-Jun-29 03:32N 34°42' E 135°17'0 0.0
2015-Jun-29 02:26N 34°42' E 135°17'0 0.0
2015-Jun-29 01:26N 34°42' E 135°17'0 0.0
2015-Jun-29 00:32N 34°42' E 135°17'0 0.0
2015-Jun-28 23:32N 34°42' E 135°17'0 0.1
2015-Jun-28 22:33N 34°41' E 135°17'3 2.5
2015-Jun-28 21:22N 34°39' E 135°18'0 0.1
2015-Jun-28 20:28N 34°39' E 135°18'0 0.0
2015-Jun-28 19:28N 34°39' E 135°18'0 0.0
2015-Jun-28 18:28N 34°39' E 135°18'0 0.0
2015-Jun-28 17:28N 34°39' E 135°18'0 0.0
2015-Jun-28 16:28N 34°39' E 135°18'0 0.0
2015-Jun-28 15:28N 34°39' E 135°18'0 0.0
2015-Jun-28 14:28N 34°39' E 135°18'0 0.0
2015-Jun-28 13:28N 34°39' E 135°18'0 0.0
2015-Jun-28 12:28N 34°39' E 135°18'1 1.1
2015-Jun-28 11:34N 34°38' E 135°18'8 7.9
2015-Jun-28 10:34N 34°31' E 135°13'1212.2
2015-Jun-28 09:33N 34°21' E 135°03'1212.3
2015-Jun-28 08:34N 34°10' E 134°59'1312.5
2015-Jun-28 07:29N 33°56' E 134°59'  

Dump ship's entire track history